createdAt,value
2019-05-30T00:00:17.602Z,3.90
2019-05-30T00:02:45.339Z,4.03
2019-05-30T00:05:14.548Z,3.50
2019-05-30T00:07:43.793Z,3.93
2019-05-30T00:10:13.149Z,3.70
2019-05-30T00:12:42.375Z,3.67
2019-05-30T00:15:12.471Z,3.77
2019-05-30T00:17:42.036Z,3.67
2019-05-30T00:20:11.783Z,4.07
2019-05-30T00:22:41.037Z,3.50
2019-05-30T00:25:10.608Z,3.50
2019-05-30T00:27:39.848Z,3.50
2019-05-30T00:30:24.026Z,3.97
2019-05-30T00:32:41.167Z,3.60
2019-05-30T00:35:10.375Z,3.43
2019-05-30T00:37:39.608Z,4.00
2019-05-30T00:40:09.379Z,3.70
2019-05-30T00:42:38.600Z,3.57
2019-05-30T00:45:20.478Z,3.50
2019-05-30T00:50:13.357Z,3.67
2019-05-30T00:52:42.582Z,3.73
2019-05-30T00:55:11.789Z,3.83
2019-05-30T00:57:40.977Z,3.43
2019-05-30T01:00:10.149Z,5.60
2019-05-30T01:02:39.348Z,3.80
2019-05-30T01:05:08.617Z,3.73
2019-05-30T01:07:37.799Z,3.70
2019-05-30T01:10:07.808Z,4.17
2019-05-30T01:12:37.164Z,4.10
2019-05-30T01:15:09.334Z,3.90
2019-05-30T01:17:38.513Z,3.87
2019-05-30T01:20:08.152Z,3.90
2019-05-30T01:22:37.346Z,3.53
2019-05-30T01:25:10.045Z,4.17
2019-05-30T01:27:39.234Z,3.93
2019-05-30T01:30:09.042Z,3.90
2019-05-30T01:32:38.308Z,3.83
2019-05-30T01:35:08.252Z,4.80
2019-05-30T01:37:37.517Z,4.60
2019-05-30T01:40:08.741Z,5.60
2019-05-30T01:42:38.315Z,5.87
2019-05-30T01:45:09.454Z,5.30
2019-05-30T01:47:38.620Z,4.97
2019-05-30T01:50:12.348Z,4.90
2019-05-30T01:52:41.536Z,4.47
2019-05-30T01:55:11.274Z,3.83
2019-05-30T01:57:40.536Z,4.23
2019-05-30T02:00:20.472Z,3.93
2019-05-30T02:02:43.106Z,4.27
2019-05-30T02:05:14.095Z,4.33
2019-05-30T02:07:43.271Z,4.03
2019-05-30T02:10:12.620Z,4.70
2019-05-30T02:12:41.809Z,4.67
2019-05-30T02:15:12.336Z,4.70
2019-05-30T02:17:41.528Z,3.80
2019-05-30T02:20:10.968Z,4.97
2019-05-30T02:22:40.481Z,6.90
2019-05-30T02:25:10.438Z,4.90
2019-05-30T02:27:39.673Z,4.43
2019-05-30T02:30:12.458Z,4.97
2019-05-30T02:32:40.380Z,4.60
2019-05-30T02:35:12.727Z,5.03
2019-05-30T02:37:41.782Z,4.70
2019-05-30T02:40:14.835Z,4.67
2019-05-30T02:42:42.171Z,5.13
2019-05-30T02:45:12.580Z,4.80
2019-05-30T02:47:42.192Z,5.33
2019-05-30T02:50:14.050Z,5.00
2019-05-30T02:52:42.780Z,4.20
2019-05-30T02:55:13.585Z,5.23
2019-05-30T02:57:43.224Z,5.30
2019-05-30T03:00:16.454Z,5.70
2019-05-30T03:02:43.534Z,4.70
2019-05-30T03:05:15.157Z,4.73
2019-05-30T03:07:44.028Z,5.20
2019-05-30T03:10:15.258Z,5.00
2019-05-30T03:12:44.286Z,6.03
2019-05-30T03:15:15.431Z,4.30
2019-05-30T03:17:44.409Z,4.30
2019-05-30T03:20:22.252Z,5.53
2019-05-30T03:22:44.550Z,4.83
2019-05-30T03:25:16.185Z,4.37
2019-05-30T03:27:44.675Z,5.17
2019-05-30T03:30:25.559Z,4.33
2019-05-30T03:33:07.723Z,4.77
2019-05-30T03:35:27.662Z,4.70
2019-05-30T03:37:46.687Z,4.30
2019-05-30T03:40:16.452Z,3.90
2019-05-30T03:42:46.769Z,4.10
2019-05-30T03:45:16.652Z,4.67
2019-05-30T03:47:54.861Z,4.70
2019-05-30T03:50:25.506Z,4.53
2019-05-30T03:52:55.068Z,4.40
2019-05-30T03:55:24.612Z,4.33
2019-05-30T03:58:10.062Z,4.40
2019-05-30T04:00:42.764Z,3.90
2019-05-30T04:03:44.091Z,4.07
2019-05-30T04:06:19.451Z,3.90
2019-05-30T04:08:50.348Z,3.73
2019-05-30T04:11:21.741Z,4.53
2019-05-30T04:13:53.827Z,4.03
2019-05-30T04:16:23.002Z,4.30
2019-05-30T04:18:52.194Z,4.30
2019-05-30T04:21:22.453Z,4.80
2019-05-30T04:23:51.627Z,4.53
2019-05-30T04:26:20.798Z,4.43
2019-05-30T04:28:49.993Z,4.30
2019-05-30T04:31:19.510Z,4.30
2019-05-30T04:33:48.946Z,3.90
2019-05-30T04:36:19.151Z,4.30
2019-05-30T04:38:48.591Z,4.50
2019-05-30T04:41:19.221Z,4.50
2019-05-30T04:43:48.649Z,4.57
2019-05-30T04:46:19.533Z,4.50
2019-05-30T04:48:48.713Z,5.97
2019-05-30T04:51:19.600Z,5.30
2019-05-30T04:53:49.069Z,5.60
2019-05-30T04:56:21.305Z,5.00
2019-05-30T04:58:50.210Z,5.70
2019-05-30T05:01:20.260Z,5.40
2019-05-30T05:03:52.373Z,5.80
2019-05-30T05:06:21.941Z,7.30
2019-05-30T05:08:51.755Z,7.83
2019-05-30T05:11:24.659Z,6.50
2019-05-30T05:13:51.805Z,6.40
2019-05-30T05:16:30.803Z,7.23
2019-05-30T05:18:51.853Z,8.40
2019-05-30T05:21:21.324Z,8.13
2019-05-30T05:23:50.494Z,7.40
2019-05-30T05:26:19.672Z,8.47
2019-05-30T05:28:48.878Z,8.13
2019-05-30T05:31:18.469Z,8.03
2019-05-30T05:33:56.795Z,7.70
2019-05-30T05:36:18.907Z,9.10
2019-05-30T05:38:48.714Z,8.93
2019-05-30T05:41:18.207Z,7.63
2019-05-30T05:43:47.446Z,7.97
2019-05-30T05:46:16.635Z,8.30
2019-05-30T05:48:45.800Z,8.07
2019-05-30T05:51:14.977Z,8.70
2019-05-30T05:53:44.157Z,8.03
2019-05-30T05:56:13.415Z,7.30
2019-05-30T05:58:42.590Z,8.90
2019-05-30T06:01:11.773Z,7.60
2019-05-30T06:03:41.214Z,8.20
2019-05-30T06:06:10.405Z,7.47
2019-05-30T06:08:39.808Z,8.70
2019-05-30T06:11:09.035Z,8.57
2019-05-30T06:13:38.508Z,9.00
2019-05-30T06:16:07.705Z,8.03
2019-05-30T06:18:37.209Z,8.70
2019-05-30T06:21:06.396Z,8.53
2019-05-30T06:23:35.579Z,8.47
2019-05-30T06:26:04.761Z,7.97
2019-05-30T06:28:33.951Z,7.17
2019-05-30T06:31:03.119Z,7.57
2019-05-30T06:33:32.301Z,7.20
2019-05-30T06:36:01.504Z,6.77
2019-05-30T06:38:31.006Z,7.70
2019-05-30T06:41:00.185Z,7.03
2019-05-30T06:43:30.290Z,7.13
2019-05-30T06:45:59.269Z,7.47
2019-05-30T06:48:28.807Z,7.20
2019-05-30T06:50:58.088Z,6.30
2019-05-30T06:53:29.345Z,7.47
2019-05-30T06:55:58.698Z,5.50
2019-05-30T06:58:41.399Z,7.13
2019-05-30T07:00:58.764Z,6.50
2019-05-30T07:03:28.504Z,6.83
2019-05-30T07:05:58.641Z,7.90
2019-05-30T07:08:28.860Z,6.50
2019-05-30T07:10:58.108Z,6.93
2019-05-30T07:13:27.384Z,6.30
2019-05-30T07:15:56.581Z,7.77
2019-05-30T07:18:27.411Z,7.17
2019-05-30T07:20:56.741Z,7.20
2019-05-30T07:23:25.928Z,7.60
2019-05-30T07:25:55.121Z,7.07
2019-05-30T07:28:24.302Z,7.30
2019-05-30T07:30:53.488Z,6.83
2019-05-30T07:33:23.837Z,6.90
2019-05-30T07:35:53.553Z,6.10
2019-05-30T07:38:22.721Z,7.03
2019-05-30T07:40:51.904Z,7.00
2019-05-30T07:43:24.790Z,8.17
2019-05-30T07:45:57.988Z,7.83
2019-05-30T07:48:22.885Z,7.13
2019-05-30T07:50:52.069Z,5.70
2019-05-30T07:53:21.240Z,5.50
2019-05-30T07:55:50.422Z,6.23
2019-05-30T07:58:19.610Z,6.07
2019-05-30T08:00:48.786Z,5.10
2019-05-30T08:03:17.964Z,6.07
2019-05-30T08:05:47.136Z,5.67
2019-05-30T08:08:16.320Z,5.00
2019-05-30T08:10:45.493Z,4.90
2019-05-30T08:13:14.692Z,4.80
2019-05-30T08:15:44.307Z,4.37
2019-05-30T08:18:13.557Z,4.70
2019-05-30T08:20:42.748Z,4.33
2019-05-30T08:23:11.943Z,5.20
2019-05-30T08:25:41.116Z,4.83
2019-05-30T08:28:10.307Z,5.10
2019-05-30T08:30:39.488Z,3.93
2019-05-30T08:33:08.672Z,4.70
2019-05-30T08:35:47.719Z,5.30
2019-05-30T08:38:09.215Z,4.90
2019-05-30T08:40:39.481Z,5.00
2019-05-30T08:43:08.766Z,4.77
2019-05-30T08:45:38.198Z,5.63
2019-05-30T08:48:07.466Z,4.60
2019-05-30T08:50:40.365Z,4.50
2019-05-30T08:53:07.528Z,4.50
2019-05-30T08:55:36.717Z,5.23
2019-05-30T08:58:05.897Z,5.60
2019-05-30T09:00:35.337Z,4.53
2019-05-30T09:03:05.102Z,4.57
2019-05-30T09:05:34.334Z,4.50
2019-05-30T09:08:03.540Z,4.30
2019-05-30T09:10:32.949Z,4.00
2019-05-30T09:13:02.144Z,4.77
2019-05-30T09:15:31.381Z,3.80
2019-05-30T09:18:00.577Z,3.50
2019-05-30T09:20:30.968Z,4.37
2019-05-30T09:23:00.372Z,3.57
2019-05-30T09:25:29.662Z,4.10
2019-05-30T09:27:58.843Z,4.23
2019-05-30T09:30:28.013Z,4.60
2019-05-30T09:32:57.230Z,4.33
2019-05-30T09:35:26.475Z,3.80
2019-05-30T09:37:57.189Z,4.80
2019-05-30T09:40:29.648Z,4.87
2019-05-30T09:42:58.989Z,5.00
2019-05-30T09:45:28.423Z,4.73
2019-05-30T09:47:57.607Z,4.70
2019-05-30T09:50:26.801Z,4.47
2019-05-30T09:52:55.972Z,4.00
2019-05-30T09:55:26.838Z,3.70
2019-05-30T09:57:56.004Z,3.60
2019-05-30T10:00:25.462Z,3.80
2019-05-30T10:02:54.701Z,3.70
2019-05-30T10:05:24.870Z,3.70
2019-05-30T10:07:54.448Z,3.40
2019-05-30T10:10:27.667Z,3.00
2019-05-30T10:13:02.439Z,3.60
2019-05-30T10:15:33.674Z,3.07
2019-05-30T10:18:05.345Z,2.97
2019-05-30T10:20:38.246Z,2.60
2019-05-30T10:23:11.886Z,2.80
2019-05-30T10:25:47.841Z,2.90
2019-05-30T10:28:21.628Z,2.63
2019-05-30T10:30:59.282Z,2.70
2019-05-30T10:33:31.565Z,3.40
2019-05-30T10:36:06.079Z,3.57
2019-05-30T10:38:41.920Z,2.77
2019-05-30T10:41:14.877Z,2.40
2019-05-30T10:43:49.077Z,2.23
2019-05-30T10:46:22.195Z,2.87
2019-05-30T10:48:54.789Z,2.70
2019-05-30T10:51:27.778Z,3.07
2019-05-30T10:54:00.919Z,2.80
2019-05-30T10:56:35.400Z,2.70
2019-05-30T10:59:09.104Z,3.40
2019-05-30T11:01:42.585Z,2.60
2019-05-30T11:04:16.128Z,2.03
2019-05-30T11:07:10.710Z,2.77
2019-05-30T11:09:31.710Z,2.10
2019-05-30T11:12:02.460Z,2.10
2019-05-30T11:14:31.625Z,3.10
2019-05-30T11:17:01.881Z,2.10
2019-05-30T11:19:31.054Z,1.70
2019-05-30T11:22:00.236Z,2.00
2019-05-30T11:24:29.413Z,3.53
2019-05-30T11:26:59.055Z,1.73
2019-05-30T11:29:28.224Z,1.80
2019-05-30T11:31:59.081Z,1.43
2019-05-30T11:34:28.346Z,1.77
2019-05-30T11:36:57.542Z,2.10
2019-05-30T11:39:26.709Z,1.50
2019-05-30T11:41:57.765Z,2.17
2019-05-30T11:47:20.219Z,2.63
2019-05-30T11:49:49.597Z,2.20
2019-05-30T11:52:18.863Z,2.87
2019-05-30T11:54:48.021Z,2.50
2019-05-30T11:57:18.857Z,2.27
2019-05-30T11:59:48.023Z,3.13
2019-05-30T12:02:18.285Z,2.20
2019-05-30T12:04:47.470Z,1.90
2019-05-30T12:07:16.641Z,4.80
2019-05-30T12:09:45.829Z,1.80
2019-05-30T12:12:14.997Z,1.70
2019-05-30T12:14:47.617Z,1.37
2019-05-30T12:17:15.117Z,1.63
2019-05-30T12:19:44.292Z,1.63
2019-05-30T12:22:13.468Z,2.63
2019-05-30T12:24:42.647Z,1.43
2019-05-30T12:27:11.821Z,2.47
2019-05-30T12:29:41.004Z,1.80
2019-05-30T12:32:10.223Z,1.40
2019-05-30T12:34:39.426Z,1.10
2019-05-30T12:37:08.585Z,1.20
2019-05-30T12:39:37.825Z,1.90
2019-05-30T12:42:06.994Z,1.60
2019-05-30T12:44:36.489Z,1.70
2019-05-30T12:47:05.668Z,1.30
2019-05-30T12:49:34.856Z,1.87
2019-05-30T12:52:05.998Z,1.67
2019-05-30T12:54:35.365Z,1.73
2019-05-30T12:57:04.605Z,4.17
2019-05-30T12:59:33.813Z,1.90
2019-05-30T13:02:03.125Z,2.07
2019-05-30T13:04:32.458Z,1.77
2019-05-30T13:07:01.648Z,3.07
2019-05-30T13:09:32.454Z,2.13
2019-05-30T13:12:02.583Z,1.70
2019-05-30T13:14:31.844Z,1.87
2019-05-30T13:17:01.833Z,1.93
2019-05-30T13:19:31.172Z,1.77
2019-05-30T13:22:01.420Z,2.00
2019-05-30T13:24:30.679Z,2.53
2019-05-30T13:26:59.864Z,1.80
2019-05-30T13:29:29.040Z,1.40
2019-05-30T13:31:58.474Z,1.70
2019-05-30T13:34:28.650Z,1.30
2019-05-30T13:36:58.854Z,3.63
2019-05-30T13:39:28.232Z,1.70
2019-05-30T13:41:57.497Z,1.60
2019-05-30T13:44:26.719Z,1.93
2019-05-30T13:46:55.896Z,1.97
2019-05-30T13:49:25.081Z,1.63
2019-05-30T13:51:54.275Z,1.30
2019-05-30T13:54:23.441Z,2.43
2019-05-30T13:56:52.625Z,3.07
2019-05-30T13:59:21.823Z,1.97
2019-05-30T14:01:50.984Z,2.23
2019-05-30T14:04:20.175Z,2.00
2019-05-30T14:06:49.344Z,1.80
2019-05-30T14:09:18.537Z,1.60
2019-05-30T14:11:47.763Z,1.70
2019-05-30T14:14:19.747Z,2.97
2019-05-30T14:16:47.824Z,4.80
2019-05-30T14:19:17.002Z,2.30
2019-05-30T14:21:46.193Z,1.90
2019-05-30T14:24:15.357Z,2.33
2019-05-30T14:26:44.536Z,3.90
2019-05-30T14:29:13.710Z,2.13
2019-05-30T14:31:42.909Z,4.10
2019-05-30T14:34:12.307Z,1.90
2019-05-30T14:36:41.639Z,2.33
2019-05-30T14:39:11.239Z,2.17
2019-05-30T14:41:40.471Z,2.77
2019-05-30T14:44:09.633Z,3.60
2019-05-30T14:46:38.823Z,2.17
2019-05-30T14:49:08.631Z,2.03
2019-05-30T14:51:37.957Z,2.40
2019-05-30T14:54:07.127Z,1.73
2019-05-30T14:56:37.456Z,2.17
2019-05-30T14:59:06.923Z,1.67
2019-05-30T15:01:36.193Z,2.40
2019-05-30T15:04:05.377Z,2.00
2019-05-30T15:06:34.561Z,2.30
2019-05-30T15:09:15.322Z,3.30
2019-05-30T15:11:36.765Z,2.97
2019-05-30T15:14:06.814Z,1.70
2019-05-30T15:16:36.183Z,2.00
2019-05-30T15:19:06.342Z,2.00
2019-05-30T15:21:35.726Z,2.23
2019-05-30T15:24:05.639Z,1.63
2019-05-30T15:26:34.888Z,1.23
2019-05-30T15:29:04.130Z,1.80
2019-05-30T15:31:33.313Z,2.40
2019-05-30T15:34:02.850Z,1.80
2019-05-30T15:36:32.012Z,1.83
2019-05-30T15:39:01.200Z,1.50
2019-05-30T15:41:32.309Z,1.77
2019-05-30T15:44:02.742Z,1.20
2019-05-30T15:46:31.941Z,1.00
2019-05-30T15:49:01.129Z,1.10
2019-05-30T15:51:30.314Z,1.10
2019-05-30T15:53:59.477Z,1.20
2019-05-30T15:56:28.656Z,1.47
2019-05-30T15:58:57.868Z,1.33
2019-05-30T16:01:27.046Z,1.50
2019-05-30T16:03:56.220Z,1.70
2019-05-30T16:06:25.412Z,1.30
2019-05-30T16:08:54.589Z,1.10
2019-05-30T16:11:23.769Z,2.10
2019-05-30T16:13:52.937Z,1.80
2019-05-30T16:16:33.763Z,1.67
2019-05-30T16:18:53.136Z,3.43
2019-05-30T16:21:22.487Z,1.40
2019-05-30T16:23:51.735Z,1.97
2019-05-30T16:26:21.982Z,1.33
2019-05-30T16:28:52.349Z,1.37
2019-05-30T16:31:22.816Z,1.47
2019-05-30T16:33:51.984Z,1.10
2019-05-30T16:36:22.406Z,1.80
2019-05-30T16:38:52.909Z,1.50
2019-05-30T16:41:22.576Z,1.23
2019-05-30T16:43:51.956Z,2.50
2019-05-30T16:46:20.798Z,2.77
2019-05-30T16:48:49.896Z,2.30
2019-05-30T16:51:19.132Z,1.10
2019-05-30T16:53:48.583Z,1.30
2019-05-30T16:56:17.753Z,1.80
2019-05-30T16:58:46.960Z,1.37
2019-05-30T17:01:16.143Z,1.20
2019-05-30T17:03:45.333Z,1.47
2019-05-30T17:06:15.806Z,0.83
2019-05-30T17:08:45.069Z,1.33
2019-05-30T17:11:15.326Z,0.90
2019-05-30T17:13:44.723Z,1.10
2019-05-30T17:16:17.815Z,1.20
2019-05-30T17:18:47.084Z,0.90
2019-05-30T17:21:16.515Z,1.20
2019-05-30T17:23:45.845Z,1.23
2019-05-30T17:26:15.028Z,1.40
2019-05-30T17:28:44.203Z,1.80
2019-05-30T17:31:13.638Z,1.40
2019-05-30T17:33:42.836Z,1.20
2019-05-30T17:36:12.025Z,1.53
2019-05-30T17:38:41.265Z,4.00
2019-05-30T17:41:10.449Z,3.57
2019-05-30T17:43:39.613Z,1.67
2019-05-30T17:46:09.045Z,1.00
2019-05-30T17:48:38.229Z,1.20
2019-05-30T17:51:07.420Z,1.50
2019-05-30T17:53:37.056Z,1.47
2019-05-30T17:56:06.264Z,1.50
2019-05-30T17:58:35.435Z,1.60
2019-05-30T18:01:04.753Z,1.50
2019-05-30T18:03:33.920Z,1.27
2019-05-30T18:06:03.115Z,1.60
2019-05-30T18:08:32.286Z,1.50
2019-05-30T18:11:01.480Z,1.60
2019-05-30T18:13:31.268Z,1.37
2019-05-30T18:16:00.523Z,1.60
2019-05-30T18:18:29.961Z,2.53
2019-05-30T18:20:59.129Z,1.37
2019-05-30T18:23:29.611Z,1.50
2019-05-30T18:25:58.976Z,1.40
2019-05-30T18:28:28.210Z,1.10
2019-05-30T18:30:57.396Z,1.17
2019-05-30T18:33:26.574Z,1.53
2019-05-30T18:35:55.930Z,2.30
2019-05-30T18:38:26.308Z,1.20
2019-05-30T18:41:10.224Z,1.27
2019-05-30T18:43:26.825Z,1.30
2019-05-30T18:45:56.045Z,1.87
2019-05-30T18:48:25.315Z,1.70
2019-05-30T18:50:54.587Z,1.53
2019-05-30T18:53:24.204Z,1.97
2019-05-30T18:55:53.546Z,1.63
2019-05-30T18:58:22.732Z,2.50
2019-05-30T19:00:51.899Z,1.63
2019-05-30T19:03:21.103Z,1.33
2019-05-30T19:05:50.389Z,2.03
2019-05-30T19:08:19.583Z,2.00
2019-05-30T19:10:48.861Z,1.70
2019-05-30T19:13:18.066Z,1.50
2019-05-30T19:15:47.234Z,1.70
2019-05-30T19:18:16.440Z,1.47
2019-05-30T19:20:45.628Z,1.80
2019-05-30T19:23:14.820Z,1.83
2019-05-30T19:25:44.167Z,1.90
2019-05-30T19:28:13.691Z,1.93
2019-05-30T19:30:43.101Z,2.00
2019-05-30T19:33:12.280Z,2.37
2019-05-30T19:35:41.591Z,1.83
2019-05-30T19:38:11.849Z,3.03
2019-05-30T19:40:41.204Z,2.47
2019-05-30T19:43:10.377Z,2.30
2019-05-30T19:45:39.565Z,4.33
2019-05-30T19:48:08.737Z,2.80
2019-05-30T19:50:38.837Z,2.70
2019-05-30T19:53:09.053Z,3.07
2019-05-30T19:55:39.840Z,2.70
2019-05-30T19:58:09.100Z,2.60
2019-05-30T20:00:54.358Z,2.50
2019-05-30T20:03:09.238Z,2.80
2019-05-30T20:05:38.907Z,2.90
2019-05-30T20:08:09.260Z,2.93
2019-05-30T20:10:39.223Z,3.00
2019-05-30T20:13:08.424Z,3.50
2019-05-30T20:15:37.806Z,2.40
2019-05-30T20:18:07.310Z,2.93
2019-05-30T20:20:52.893Z,3.37
2019-05-30T20:23:08.379Z,2.63
2019-05-30T20:25:41.878Z,4.17
2019-05-30T20:28:08.456Z,3.10
2019-05-30T20:30:37.654Z,3.70
2019-05-30T20:33:06.822Z,4.00
2019-05-30T20:35:37.566Z,3.30
2019-05-30T20:38:07.140Z,4.03
2019-05-30T20:40:36.942Z,4.07
2019-05-30T20:43:06.477Z,4.17
2019-05-30T20:45:39.532Z,3.50
2019-05-30T20:48:06.578Z,2.83
2019-05-30T20:50:36.868Z,3.27
2019-05-30T20:53:06.325Z,3.10
2019-05-30T20:55:36.347Z,4.40
2019-05-30T20:58:05.784Z,3.30
2019-05-30T21:00:40.081Z,2.67
2019-05-30T21:03:09.621Z,5.37
2019-05-30T21:05:39.882Z,3.63
2019-05-30T21:08:10.155Z,2.97
2019-05-30T21:10:41.147Z,3.57
2019-05-30T21:13:10.886Z,2.70
2019-05-30T21:15:41.642Z,3.10
2019-05-30T21:18:11.018Z,3.40
2019-05-30T21:20:40.338Z,3.47
2019-05-30T21:23:09.533Z,5.07
2019-05-30T21:25:39.035Z,2.83
2019-05-30T21:28:08.254Z,2.77
2019-05-30T21:30:38.745Z,2.70
2019-05-30T21:33:08.394Z,2.17
2019-05-30T21:35:39.652Z,2.80
2019-05-30T21:38:10.103Z,3.17
2019-05-30T21:40:40.405Z,2.20
2019-05-30T21:43:10.934Z,2.30
2019-05-30T21:45:40.399Z,2.47
2019-05-30T21:48:10.645Z,5.60
2019-05-30T21:50:43.065Z,2.60
2019-05-30T21:53:11.168Z,2.47
2019-05-30T21:55:41.531Z,2.70
2019-05-30T21:58:10.792Z,4.93
2019-05-30T22:00:46.591Z,2.50
2019-05-30T22:03:16.252Z,2.70
2019-05-30T22:05:46.895Z,3.33
2019-05-30T22:08:16.341Z,3.07
2019-05-30T22:10:47.671Z,3.00
2019-05-30T22:13:17.070Z,3.07
2019-05-30T22:15:46.271Z,2.47
2019-05-30T22:18:15.453Z,2.87
2019-05-30T22:20:45.757Z,3.10
2019-05-30T22:23:15.093Z,2.87
2019-05-30T22:25:44.277Z,3.03
2019-05-30T22:28:13.444Z,3.03
2019-05-30T22:30:42.624Z,2.80
2019-05-30T22:33:11.808Z,2.60
2019-05-30T22:35:40.984Z,2.50
2019-05-30T22:38:10.152Z,3.20
2019-05-30T22:40:39.335Z,3.03
2019-05-30T22:43:08.520Z,2.63
2019-05-30T22:45:37.689Z,2.70
2019-05-30T22:48:06.872Z,2.70
2019-05-30T22:50:36.067Z,3.27
2019-05-30T22:53:05.325Z,3.40
2019-05-30T22:55:34.513Z,3.10
2019-05-30T22:58:03.685Z,2.57
2019-05-30T23:00:32.874Z,2.73
2019-05-30T23:03:02.054Z,2.90
2019-05-30T23:05:31.229Z,3.10
2019-05-30T23:08:00.404Z,3.00
2019-05-30T23:10:29.576Z,3.10
2019-05-30T23:12:59.828Z,2.73
2019-05-30T23:15:28.995Z,2.43
2019-05-30T23:17:58.183Z,2.43
2019-05-30T23:20:27.353Z,2.53
2019-05-30T23:22:57.169Z,3.37
2019-05-30T23:25:26.480Z,2.40
2019-05-30T23:27:55.701Z,2.63
2019-05-30T23:30:24.904Z,2.30
2019-05-30T23:32:54.246Z,2.80
2019-05-30T23:35:23.533Z,2.37
2019-05-30T23:37:53.058Z,3.30
2019-05-30T23:40:22.297Z,2.47
2019-05-30T23:42:51.501Z,3.30
2019-05-30T23:45:20.726Z,2.60
2019-05-30T23:47:49.912Z,2.40
2019-05-30T23:50:19.082Z,2.93
2019-05-30T23:52:48.283Z,2.67
2019-05-30T23:55:17.440Z,2.60
2019-05-30T23:57:46.628Z,2.20
